sensor_id;sensor_type;location;lat;lon;timestamp;P1;durP1;ratioP1;P2;durP2;ratioP2
75758;SDS011;64371;47.566;19.086;2023-08-06T09:42:46;0.22;;;0.15;;
75758;SDS011;64371;47.566;19.086;2023-08-06T09:45:48;0.30;;;0.10;;
75758;SDS011;64371;47.566;19.086;2023-08-06T09:48:51;0.20;;;0.10;;
75758;SDS011;64371;47.566;19.086;2023-08-06T09:51:53;0.22;;;0.20;;
75758;SDS011;64371;47.566;19.086;2023-08-06T09:54:58;0.57;;;0.30;;
75758;SDS011;64371;47.566;19.086;2023-08-06T09:58:02;0.20;;;0.20;;
75758;SDS011;64371;47.566;19.086;2023-08-06T10:01:05;0.20;;;0.20;;
75758;SDS011;64371;47.566;19.086;2023-08-06T10:04:08;0.65;;;0.17;;
75758;SDS011;64371;47.566;19.086;2023-08-06T10:07:24;0.25;;;0.20;;
75758;SDS011;64371;47.566;19.086;2023-08-06T10:10:27;1.90;;;0.97;;
75758;SDS011;64371;47.566;19.086;2023-08-06T10:13:31;0.40;;;0.13;;
75758;SDS011;64371;47.566;19.086;2023-08-06T10:16:35;0.40;;;0.20;;
75758;SDS011;64371;47.566;19.086;2023-08-06T10:19:38;0.20;;;0.15;;
75758;SDS011;64371;47.566;19.086;2023-08-06T10:22:44;0.52;;;0.22;;
75758;SDS011;64371;47.566;19.086;2023-08-06T10:25:47;0.23;;;0.20;;
75758;SDS011;64371;47.566;19.086;2023-08-06T10:28:57;0.30;;;0.10;;
75758;SDS011;64371;47.566;19.086;2023-08-06T10:32:00;0.40;;;0.20;;
75758;SDS011;64371;47.566;19.086;2023-08-06T10:35:02;1.13;;;0.22;;
75758;SDS011;64371;47.566;19.086;2023-08-06T10:38:12;0.20;;;0.20;;
75758;SDS011;64371;47.566;19.086;2023-08-06T10:41:23;0.93;;;0.20;;
75758;SDS011;64371;47.566;19.086;2023-08-06T10:44:26;0.40;;;0.20;;
75758;SDS011;64371;47.566;19.086;2023-08-06T10:47:37;0.30;;;0.20;;
75758;SDS011;64371;47.566;19.086;2023-08-06T10:50:45;0.43;;;0.28;;
75758;SDS011;64371;47.566;19.086;2023-08-06T10:53:47;1.20;;;0.22;;
75758;SDS011;64371;47.566;19.086;2023-08-06T10:56:51;0.20;;;0.13;;
75758;SDS011;64371;47.566;19.086;2023-08-06T10:59:53;2.28;;;0.40;;
75758;SDS011;64371;47.566;19.086;2023-08-06T11:03:15;0.35;;;0.35;;
75758;SDS011;64371;47.566;19.086;2023-08-06T11:06:19;0.43;;;0.35;;
75758;SDS011;64371;47.566;19.086;2023-08-06T11:09:23;1.27;;;0.20;;
75758;SDS011;64371;47.566;19.086;2023-08-06T11:12:25;0.30;;;0.30;;
75758;SDS011;64371;47.566;19.086;2023-08-06T11:15:27;0.93;;;0.32;;
75758;SDS011;64371;47.566;19.086;2023-08-06T11:18:32;0.93;;;0.30;;
75758;SDS011;64371;47.566;19.086;2023-08-06T11:21:35;0.38;;;0.30;;
75758;SDS011;64371;47.566;19.086;2023-08-06T11:24:37;1.00;;;0.30;;
75758;SDS011;64371;47.566;19.086;2023-08-06T11:27:40;0.40;;;0.30;;
75758;SDS011;64371;47.566;19.086;2023-08-06T11:30:42;0.43;;;0.20;;
75758;SDS011;64371;47.566;19.086;2023-08-06T11:33:45;0.10;;;0.10;;
75758;SDS011;64371;47.566;19.086;2023-08-06T11:36:47;1.35;;;0.50;;
75758;SDS011;64371;47.566;19.086;2023-08-06T11:39:49;0.50;;;0.40;;
75758;SDS011;64371;47.566;19.086;2023-08-06T11:42:52;1.53;;;0.30;;
75758;SDS011;64371;47.566;19.086;2023-08-06T11:45:55;0.50;;;0.40;;
75758;SDS011;64371;47.566;19.086;2023-08-06T11:48:58;0.60;;;0.50;;
75758;SDS011;64371;47.566;19.086;2023-08-06T11:52:06;0.70;;;0.50;;
75758;SDS011;64371;47.566;19.086;2023-08-06T11:55:10;0.60;;;0.40;;
75758;SDS011;64371;47.566;19.086;2023-08-06T11:58:13;1.70;;;0.50;;
75758;SDS011;64371;47.566;19.086;2023-08-06T12:01:18;0.77;;;0.52;;
75758;SDS011;64371;47.566;19.086;2023-08-06T12:04:21;0.50;;;0.30;;
75758;SDS011;64371;47.566;19.086;2023-08-06T12:07:28;0.65;;;0.50;;
75758;SDS011;64371;47.566;19.086;2023-08-06T12:10:31;1.10;;;0.50;;
75758;SDS011;64371;47.566;19.086;2023-08-06T12:13:34;2.20;;;0.77;;
75758;SDS011;64371;47.566;19.086;2023-08-06T12:16:37;0.90;;;0.50;;
75758;SDS011;64371;47.566;19.086;2023-08-06T12:19:39;0.68;;;0.50;;
75758;SDS011;64371;47.566;19.086;2023-08-06T12:22:41;1.08;;;0.63;;
75758;SDS011;64371;47.566;19.086;2023-08-06T12:25:44;1.15;;;0.40;;
75758;SDS011;64371;47.566;19.086;2023-08-06T12:28:46;0.70;;;0.60;;
75758;SDS011;64371;47.566;19.086;2023-08-06T12:31:49;2.45;;;0.50;;
75758;SDS011;64371;47.566;19.086;2023-08-06T12:34:51;0.80;;;0.60;;
75758;SDS011;64371;47.566;19.086;2023-08-06T12:37:54;0.70;;;0.60;;
75758;SDS011;64371;47.566;19.086;2023-08-06T12:40:59;1.75;;;0.70;;
75758;SDS011;64371;47.566;19.086;2023-08-06T12:44:01;0.80;;;0.70;;
75758;SDS011;64371;47.566;19.086;2023-08-06T12:47:04;1.02;;;0.70;;
75758;SDS011;64371;47.566;19.086;2023-08-06T12:50:06;1.20;;;1.05;;
75758;SDS011;64371;47.566;19.086;2023-08-06T12:53:10;1.10;;;0.95;;
75758;SDS011;64371;47.566;19.086;2023-08-06T12:56:12;1.20;;;1.10;;
75758;SDS011;64371;47.566;19.086;2023-08-06T12:59:15;1.40;;;1.03;;
75758;SDS011;64371;47.566;19.086;2023-08-06T13:02:19;1.42;;;1.27;;
75758;SDS011;64371;47.566;19.086;2023-08-06T13:05:21;2.10;;;1.05;;
75758;SDS011;64371;47.566;19.086;2023-08-06T13:08:24;1.45;;;1.30;;
75758;SDS011;64371;47.566;19.086;2023-08-06T13:11:26;1.48;;;1.20;;
75758;SDS011;64371;47.566;19.086;2023-08-06T13:14:28;1.60;;;1.27;;
75758;SDS011;64371;47.566;19.086;2023-08-06T13:17:31;1.63;;;1.40;;
75758;SDS011;64371;47.566;19.086;2023-08-06T13:20:34;2.08;;;1.50;;
75758;SDS011;64371;47.566;19.086;2023-08-06T13:23:36;1.70;;;1.60;;
75758;SDS011;64371;47.566;19.086;2023-08-06T13:26:38;1.85;;;1.70;;
75758;SDS011;64371;47.566;19.086;2023-08-06T13:29:41;2.00;;;1.60;;
75758;SDS011;64371;47.566;19.086;2023-08-06T13:32:43;2.10;;;1.90;;
75758;SDS011;64371;47.566;19.086;2023-08-06T13:35:46;2.15;;;1.30;;
75758;SDS011;64371;47.566;19.086;2023-08-06T13:38:49;2.30;;;1.70;;
75758;SDS011;64371;47.566;19.086;2023-08-06T13:41:51;1.67;;;1.50;;
75758;SDS011;64371;47.566;19.086;2023-08-06T13:44:54;2.90;;;1.70;;
75758;SDS011;64371;47.566;19.086;2023-08-06T13:48:01;1.75;;;1.38;;
75758;SDS011;64371;47.566;19.086;2023-08-06T13:51:04;2.03;;;1.58;;
75758;SDS011;64371;47.566;19.086;2023-08-06T13:54:06;1.70;;;1.25;;
75758;SDS011;64371;47.566;19.086;2023-08-06T13:57:09;1.90;;;1.65;;
75758;SDS011;64371;47.566;19.086;2023-08-06T14:00:11;2.37;;;1.80;;
75758;SDS011;64371;47.566;19.086;2023-08-06T14:03:14;2.05;;;1.63;;
75758;SDS011;64371;47.566;19.086;2023-08-06T14:06:16;4.05;;;2.10;;
75758;SDS011;64371;47.566;19.086;2023-08-06T14:09:19;3.20;;;2.15;;
75758;SDS011;64371;47.566;19.086;2023-08-06T14:12:22;2.35;;;2.00;;
75758;SDS011;64371;47.566;19.086;2023-08-06T14:15:24;4.77;;;2.03;;
75758;SDS011;64371;47.566;19.086;2023-08-06T14:18:26;4.15;;;2.10;;
75758;SDS011;64371;47.566;19.086;2023-08-06T14:21:29;2.55;;;2.35;;
75758;SDS011;64371;47.566;19.086;2023-08-06T14:24:32;2.50;;;1.90;;
75758;SDS011;64371;47.566;19.086;2023-08-06T14:27:34;2.20;;;1.77;;
75758;SDS011;64371;47.566;19.086;2023-08-06T14:30:36;4.47;;;1.90;;
75758;SDS011;64371;47.566;19.086;2023-08-06T14:33:39;2.50;;;1.38;;
75758;SDS011;64371;47.566;19.086;2023-08-06T14:36:41;1.60;;;1.50;;
75758;SDS011;64371;47.566;19.086;2023-08-06T14:39:43;1.65;;;1.55;;
75758;SDS011;64371;47.566;19.086;2023-08-06T14:42:46;1.48;;;1.27;;
75758;SDS011;64371;47.566;19.086;2023-08-06T14:45:48;3.50;;;1.67;;
75758;SDS011;64371;47.566;19.086;2023-08-06T14:48:50;2.63;;;1.50;;
75758;SDS011;64371;47.566;19.086;2023-08-06T14:51:53;1.90;;;1.80;;
75758;SDS011;64371;47.566;19.086;2023-08-06T14:54:55;1.90;;;1.70;;
75758;SDS011;64371;47.566;19.086;2023-08-06T14:57:58;1.95;;;1.70;;
75758;SDS011;64371;47.566;19.086;2023-08-06T15:01:00;2.07;;;1.87;;
75758;SDS011;64371;47.566;19.086;2023-08-06T15:04:03;2.25;;;1.70;;
75758;SDS011;64371;47.566;19.086;2023-08-06T15:07:05;1.90;;;1.67;;
75758;SDS011;64371;47.566;19.086;2023-08-06T15:10:08;1.90;;;1.70;;
75758;SDS011;64371;47.566;19.086;2023-08-06T15:13:27;1.80;;;1.60;;
75758;SDS011;64371;47.566;19.086;2023-08-06T15:16:29;2.27;;;1.70;;
75758;SDS011;64371;47.566;19.086;2023-08-06T15:19:32;1.55;;;1.45;;
75758;SDS011;64371;47.566;19.086;2023-08-06T15:22:34;1.80;;;1.58;;
75758;SDS011;64371;47.566;19.086;2023-08-06T15:25:36;2.67;;;1.30;;
75758;SDS011;64371;47.566;19.086;2023-08-06T15:28:39;1.70;;;1.60;;
75758;SDS011;64371;47.566;19.086;2023-08-06T15:31:41;1.60;;;1.50;;
75758;SDS011;64371;47.566;19.086;2023-08-06T15:34:44;2.63;;;1.67;;
75758;SDS011;64371;47.566;19.086;2023-08-06T15:37:48;1.75;;;1.60;;
75758;SDS011;64371;47.566;19.086;2023-08-06T15:40:51;2.08;;;1.55;;
75758;SDS011;64371;47.566;19.086;2023-08-06T15:43:53;2.55;;;1.70;;
75758;SDS011;64371;47.566;19.086;2023-08-06T15:46:55;1.60;;;1.50;;
75758;SDS011;64371;47.566;19.086;2023-08-06T15:49:58;2.05;;;1.67;;
75758;SDS011;64371;47.566;19.086;2023-08-06T15:53:00;1.80;;;1.50;;
75758;SDS011;64371;47.566;19.086;2023-08-06T15:56:03;1.90;;;1.63;;
75758;SDS011;64371;47.566;19.086;2023-08-06T16:02:25;2.80;;;1.93;;
75758;SDS011;64371;47.566;19.086;2023-08-06T16:05:29;2.78;;;1.60;;
75758;SDS011;64371;47.566;19.086;2023-08-06T16:08:33;1.70;;;1.42;;
75758;SDS011;64371;47.566;19.086;2023-08-06T16:11:35;1.48;;;1.38;;
75758;SDS011;64371;47.566;19.086;2023-08-06T16:14:37;1.85;;;1.45;;
75758;SDS011;64371;47.566;19.086;2023-08-06T16:17:40;1.77;;;1.47;;
75758;SDS011;64371;47.566;19.086;2023-08-06T16:20:43;1.63;;;1.40;;
75758;SDS011;64371;47.566;19.086;2023-08-06T16:23:46;1.42;;;1.33;;
75758;SDS011;64371;47.566;19.086;2023-08-06T16:26:48;1.67;;;1.58;;
75758;SDS011;64371;47.566;19.086;2023-08-06T16:29:50;2.35;;;1.20;;
75758;SDS011;64371;47.566;19.086;2023-08-06T16:32:52;3.10;;;1.60;;
75758;SDS011;64371;47.566;19.086;2023-08-06T16:35:55;6.30;;;1.60;;
75758;SDS011;64371;47.566;19.086;2023-08-06T16:38:58;1.60;;;1.35;;
75758;SDS011;64371;47.566;19.086;2023-08-06T16:42:00;1.60;;;1.20;;
75758;SDS011;64371;47.566;19.086;2023-08-06T16:45:02;4.28;;;1.40;;
75758;SDS011;64371;47.566;19.086;2023-08-06T16:48:05;1.63;;;1.33;;
75758;SDS011;64371;47.566;19.086;2023-08-06T16:51:08;2.35;;;1.40;;
75758;SDS011;64371;47.566;19.086;2023-08-06T16:54:12;2.28;;;1.40;;
75758;SDS011;64371;47.566;19.086;2023-08-06T16:57:15;1.95;;;1.27;;
75758;SDS011;64371;47.566;19.086;2023-08-06T17:00:17;2.08;;;1.38;;
75758;SDS011;64371;47.566;19.086;2023-08-06T17:03:19;1.50;;;1.20;;
75758;SDS011;64371;47.566;19.086;2023-08-06T17:06:22;1.65;;;1.25;;
75758;SDS011;64371;47.566;19.086;2023-08-06T17:09:25;2.22;;;1.42;;
75758;SDS011;64371;47.566;19.086;2023-08-06T17:12:27;1.30;;;1.20;;
75758;SDS011;64371;47.566;19.086;2023-08-06T17:15:30;1.95;;;1.23;;
75758;SDS011;64371;47.566;19.086;2023-08-06T17:18:34;2.60;;;1.50;;
75758;SDS011;64371;47.566;19.086;2023-08-06T17:21:36;2.97;;;1.30;;
75758;SDS011;64371;47.566;19.086;2023-08-06T17:24:39;1.42;;;1.30;;
75758;SDS011;64371;47.566;19.086;2023-08-06T17:27:43;4.90;;;1.60;;
75758;SDS011;64371;47.566;19.086;2023-08-06T17:30:45;1.52;;;1.40;;
75758;SDS011;64371;47.566;19.086;2023-08-06T17:33:47;1.93;;;1.63;;
75758;SDS011;64371;47.566;19.086;2023-08-06T17:36:50;1.55;;;1.30;;
75758;SDS011;64371;47.566;19.086;2023-08-06T17:39:53;2.15;;;1.27;;
75758;SDS011;64371;47.566;19.086;2023-08-06T17:42:55;2.53;;;1.60;;
75758;SDS011;64371;47.566;19.086;2023-08-06T17:45:57;4.22;;;1.70;;
75758;SDS011;64371;47.566;19.086;2023-08-06T17:49:00;1.20;;;1.10;;
75758;SDS011;64371;47.566;19.086;2023-08-06T17:52:02;2.42;;;1.45;;
75758;SDS011;64371;47.566;19.086;2023-08-06T17:55:05;2.22;;;1.50;;
75758;SDS011;64371;47.566;19.086;2023-08-06T17:58:08;1.70;;;1.40;;
75758;SDS011;64371;47.566;19.086;2023-08-06T18:01:11;1.50;;;1.40;;
75758;SDS011;64371;47.566;19.086;2023-08-06T18:04:13;2.00;;;1.47;;
75758;SDS011;64371;47.566;19.086;2023-08-06T18:07:15;2.20;;;1.63;;
75758;SDS011;64371;47.566;19.086;2023-08-06T18:10:18;2.08;;;1.45;;
75758;SDS011;64371;47.566;19.086;2023-08-06T18:13:20;1.90;;;1.60;;
75758;SDS011;64371;47.566;19.086;2023-08-06T18:16:23;1.95;;;1.70;;
75758;SDS011;64371;47.566;19.086;2023-08-06T18:19:25;1.73;;;1.60;;
75758;SDS011;64371;47.566;19.086;2023-08-06T18:22:27;2.03;;;1.27;;
75758;SDS011;64371;47.566;19.086;2023-08-06T18:25:30;2.15;;;1.40;;
75758;SDS011;64371;47.566;19.086;2023-08-06T18:28:33;8.38;;;6.85;;
75758;SDS011;64371;47.566;19.086;2023-08-06T18:31:35;2.00;;;1.50;;
75758;SDS011;64371;47.566;19.086;2023-08-06T18:34:38;2.27;;;1.50;;
75758;SDS011;64371;47.566;19.086;2023-08-06T18:37:41;2.30;;;1.95;;
75758;SDS011;64371;47.566;19.086;2023-08-06T18:40:43;1.83;;;1.52;;
75758;SDS011;64371;47.566;19.086;2023-08-06T18:43:45;1.98;;;1.42;;
75758;SDS011;64371;47.566;19.086;2023-08-06T18:46:48;1.67;;;1.40;;
75758;SDS011;64371;47.566;19.086;2023-08-06T18:49:50;1.50;;;1.40;;
75758;SDS011;64371;47.566;19.086;2023-08-06T18:52:52;3.00;;;1.40;;
75758;SDS011;64371;47.566;19.086;2023-08-06T18:55:55;1.83;;;1.52;;
75758;SDS011;64371;47.566;19.086;2023-08-06T18:58:58;1.85;;;1.30;;
75758;SDS011;64371;47.566;19.086;2023-08-06T19:02:01;1.60;;;1.50;;
75758;SDS011;64371;47.566;19.086;2023-08-06T19:05:04;2.60;;;1.63;;
75758;SDS011;64371;47.566;19.086;2023-08-06T19:08:07;2.85;;;1.63;;
75758;SDS011;64371;47.566;19.086;2023-08-06T19:11:09;2.47;;;1.52;;
75758;SDS011;64371;47.566;19.086;2023-08-06T19:14:12;1.85;;;1.65;;
75758;SDS011;64371;47.566;19.086;2023-08-06T19:17:14;2.17;;;1.50;;
75758;SDS011;64371;47.566;19.086;2023-08-06T19:20:16;2.47;;;1.53;;
75758;SDS011;64371;47.566;19.086;2023-08-06T19:23:19;2.33;;;1.50;;
75758;SDS011;64371;47.566;19.086;2023-08-06T19:26:22;2.17;;;1.50;;
75758;SDS011;64371;47.566;19.086;2023-08-06T19:29:24;1.55;;;1.45;;
75758;SDS011;64371;47.566;19.086;2023-08-06T19:32:27;2.38;;;1.50;;
75758;SDS011;64371;47.566;19.086;2023-08-06T19:35:29;3.13;;;1.50;;
75758;SDS011;64371;47.566;19.086;2023-08-06T19:38:32;3.35;;;1.42;;
75758;SDS011;64371;47.566;19.086;2023-08-06T19:41:34;1.90;;;1.58;;
75758;SDS011;64371;47.566;19.086;2023-08-06T19:44:37;4.90;;;1.67;;
75758;SDS011;64371;47.566;19.086;2023-08-06T19:47:39;2.95;;;1.50;;
75758;SDS011;64371;47.566;19.086;2023-08-06T19:50:41;2.10;;;1.70;;
75758;SDS011;64371;47.566;19.086;2023-08-06T19:53:44;3.20;;;1.40;;
75758;SDS011;64371;47.566;19.086;2023-08-06T19:56:46;2.88;;;1.70;;
75758;SDS011;64371;47.566;19.086;2023-08-06T19:59:49;2.88;;;1.67;;
75758;SDS011;64371;47.566;19.086;2023-08-06T20:02:51;2.20;;;1.50;;
75758;SDS011;64371;47.566;19.086;2023-08-06T20:05:53;2.27;;;1.30;;
75758;SDS011;64371;47.566;19.086;2023-08-06T20:08:56;2.80;;;1.25;;
75758;SDS011;64371;47.566;19.086;2023-08-06T20:11:59;3.42;;;1.67;;
75758;SDS011;64371;47.566;19.086;2023-08-06T20:15:01;2.53;;;1.52;;
75758;SDS011;64371;47.566;19.086;2023-08-06T20:18:04;1.85;;;1.50;;
75758;SDS011;64371;47.566;19.086;2023-08-06T20:21:06;1.40;;;1.20;;
75758;SDS011;64371;47.566;19.086;2023-08-06T20:24:09;2.20;;;1.67;;
75758;SDS011;64371;47.566;19.086;2023-08-06T20:27:11;1.67;;;1.23;;
75758;SDS011;64371;47.566;19.086;2023-08-06T20:30:13;1.73;;;1.38;;
75758;SDS011;64371;47.566;19.086;2023-08-06T20:33:15;2.08;;;0.90;;
75758;SDS011;64371;47.566;19.086;2023-08-06T20:36:18;2.10;;;1.10;;
75758;SDS011;64371;47.566;19.086;2023-08-06T20:39:20;2.53;;;1.00;;
75758;SDS011;64371;47.566;19.086;2023-08-06T20:42:22;2.80;;;1.00;;
75758;SDS011;64371;47.566;19.086;2023-08-06T20:45:25;1.13;;;0.90;;
75758;SDS011;64371;47.566;19.086;2023-08-06T20:48:27;0.88;;;0.60;;
75758;SDS011;64371;47.566;19.086;2023-08-06T20:51:29;1.03;;;0.83;;
75758;SDS011;64371;47.566;19.086;2023-08-06T20:54:32;2.10;;;0.90;;
75758;SDS011;64371;47.566;19.086;2023-08-06T20:57:34;0.98;;;0.80;;
75758;SDS011;64371;47.566;19.086;2023-08-06T21:00:36;0.90;;;0.70;;
75758;SDS011;64371;47.566;19.086;2023-08-06T21:03:39;1.55;;;0.70;;
75758;SDS011;64371;47.566;19.086;2023-08-06T21:06:42;0.83;;;0.60;;
75758;SDS011;64371;47.566;19.086;2023-08-06T21:09:44;1.00;;;0.50;;
75758;SDS011;64371;47.566;19.086;2023-08-06T21:12:46;0.73;;;0.50;;
75758;SDS011;64371;47.566;19.086;2023-08-06T21:15:58;0.50;;;0.40;;
75758;SDS011;64371;47.566;19.086;2023-08-06T21:19:01;1.60;;;0.43;;
75758;SDS011;64371;47.566;19.086;2023-08-06T21:22:06;0.43;;;0.30;;
75758;SDS011;64371;47.566;19.086;2023-08-06T21:25:10;0.57;;;0.40;;
75758;SDS011;64371;47.566;19.086;2023-08-06T21:28:12;1.15;;;0.20;;
75758;SDS011;64371;47.566;19.086;2023-08-06T21:31:15;1.10;;;0.32;;
75758;SDS011;64371;47.566;19.086;2023-08-06T21:34:17;1.25;;;0.28;;
75758;SDS011;64371;47.566;19.086;2023-08-06T21:37:19;1.07;;;0.10;;
75758;SDS011;64371;47.566;19.086;2023-08-06T21:40:22;0.77;;;0.10;;
75758;SDS011;64371;47.566;19.086;2023-08-06T21:43:24;0.90;;;0.10;;
75758;SDS011;64371;47.566;19.086;2023-08-06T21:46:26;0.15;;;0.10;;
75758;SDS011;64371;47.566;19.086;2023-08-06T21:49:29;0.25;;;0.00;;
75758;SDS011;64371;47.566;19.086;2023-08-06T21:52:31;0.13;;;0.10;;
75758;SDS011;64371;47.566;19.086;2023-08-06T21:55:33;2.63;;;0.15;;
75758;SDS011;64371;47.566;19.086;2023-08-06T21:58:39;0.20;;;0.10;;
75758;SDS011;64371;47.566;19.086;2023-08-06T22:01:43;0.52;;;0.00;;
75758;SDS011;64371;47.566;19.086;2023-08-06T22:04:45;0.68;;;0.15;;
75758;SDS011;64371;47.566;19.086;2023-08-06T22:07:47;0.80;;;0.30;;
75758;SDS011;64371;47.566;19.086;2023-08-06T22:10:50;0.93;;;0.17;;
75758;SDS011;64371;47.566;19.086;2023-08-06T22:13:53;1.50;;;0.10;;
75758;SDS011;64371;47.566;19.086;2023-08-06T22:16:55;0.10;;;0.00;;
75758;SDS011;64371;47.566;19.086;2023-08-06T22:19:57;0.20;;;0.00;;
75758;SDS011;64371;47.566;19.086;2023-08-06T22:23:00;0.50;;;0.10;;
75758;SDS011;64371;47.566;19.086;2023-08-06T22:26:02;1.45;;;0.10;;
75758;SDS011;64371;47.566;19.086;2023-08-06T22:29:05;0.32;;;0.30;;
75758;SDS011;64371;47.566;19.086;2023-08-06T22:32:07;0.30;;;0.00;;
75758;SDS011;64371;47.566;19.086;2023-08-06T22:35:09;0.08;;;0.00;;
75758;SDS011;64371;47.566;19.086;2023-08-06T22:38:12;0.10;;;0.10;;
75758;SDS011;64371;47.566;19.086;2023-08-06T22:41:14;0.10;;;0.00;;
75758;SDS011;64371;47.566;19.086;2023-08-06T22:44:16;0.10;;;0.00;;
75758;SDS011;64371;47.566;19.086;2023-08-06T22:47:19;1.25;;;0.10;;
75758;SDS011;64371;47.566;19.086;2023-08-06T22:50:22;0.20;;;0.00;;
75758;SDS011;64371;47.566;19.086;2023-08-06T22:53:24;0.40;;;0.10;;
75758;SDS011;64371;47.566;19.086;2023-08-06T22:56:26;0.10;;;0.00;;
75758;SDS011;64371;47.566;19.086;2023-08-06T22:59:29;0.75;;;0.00;;
75758;SDS011;64371;47.566;19.086;2023-08-06T23:02:31;2.10;;;0.00;;
75758;SDS011;64371;47.566;19.086;2023-08-06T23:05:33;0.03;;;0.00;;
75758;SDS011;64371;47.566;19.086;2023-08-06T23:08:36;0.37;;;0.00;;
75758;SDS011;64371;47.566;19.086;2023-08-06T23:11:38;0.55;;;0.10;;
75758;SDS011;64371;47.566;19.086;2023-08-06T23:14:40;0.25;;;0.00;;
75758;SDS011;64371;47.566;19.086;2023-08-06T23:17:43;0.10;;;0.00;;
75758;SDS011;64371;47.566;19.086;2023-08-06T23:20:45;0.00;;;0.00;;
75758;SDS011;64371;47.566;19.086;2023-08-06T23:23:47;2.00;;;0.00;;
75758;SDS011;64371;47.566;19.086;2023-08-06T23:26:50;1.38;;;0.10;;
75758;SDS011;64371;47.566;19.086;2023-08-06T23:29:52;2.47;;;0.88;;
75758;SDS011;64371;47.566;19.086;2023-08-06T23:32:55;1.35;;;0.05;;
75758;SDS011;64371;47.566;19.086;2023-08-06T23:35:57;0.10;;;0.00;;
75758;SDS011;64371;47.566;19.086;2023-08-06T23:38:59;0.23;;;0.00;;
75758;SDS011;64371;47.566;19.086;2023-08-06T23:42:02;0.13;;;0.00;;
75758;SDS011;64371;47.566;19.086;2023-08-06T23:45:04;0.40;;;0.00;;
75758;SDS011;64371;47.566;19.086;2023-08-06T23:48:07;0.40;;;0.00;;
75758;SDS011;64371;47.566;19.086;2023-08-06T23:51:10;0.10;;;0.08;;
75758;SDS011;64371;47.566;19.086;2023-08-06T23:54:12;0.20;;;0.00;;
75758;SDS011;64371;47.566;19.086;2023-08-06T23:57:15;0.28;;;0.10;;
